Weather at St Augustin Airport

Public forecast

Using degrees Celsius for public forecast. Weather courtesy of forecast.io.

Closest aviation weather report (METAR) to St Augustin Airport

Report is more than 6 hours old.

Closest report is Lourdes-de-Blanc-Sablon Airport, 57.0 nm (105.5 km) ENE.

2022/11/14 15:00 (retrieved 2 years ago)

CYBX 141500Z 08020G26KT 15SM BKN016 OVC100 M02/M05 A2982 RMK SC7AC1 PRESFR SLP102

Closest aviation forecast (TAF) to St Augustin Airport

Forecast is more than 12 hours old.

Closest forecast is Lourdes-de-Blanc-Sablon Airport, 57.0 nm (105.5 km) ENE.

2023/02/22 20:00 (retrieved 1 year ago)

TAF CYBX 221940Z 2220/2308 34005KT P6SM BKN015 TEMPO 2220/2222 SCT015 BKN025 FM222200 31008KT P6SM SCT020 TEMPO 2222/2301 BKN020 BECMG 2302/2304 30015G25KT RMK NXT FCST BY 230200Z